KFDW

Fairfield County Airport

Winnsboro, South Carolina, USA
METAR KFDW 181315Z AUTO 03004KT 10SM CLR 03/00 A3009 RMK AO1
Observed Flight Rules
Dec-18 @ 13:15 UTC (21 minutes ago) Visual Flight Rules
Wind Visibility Clouds
30° at 4 knots 10 miles
  • Clear skies
Temperatures Readings
Current 3°C / 37°F
Dewpoint 0°C / 32°F
Humidity 81%
Altimeter 30.09" Hg
Pressure 1019 hPa
Elevation 176
METAR KFDW 181315Z AUTO 03004KT 10SM CLR 03/00 A3009 RMK AO1
Observed Flight Rules
Dec-18 @ 13:15 UTC
(21 minutes ago)
VFR
Wind Visibility
30° at 4 knots 10 miles
Clouds
  • Clear skies
Temperature Dewpoint
3°C / 37°F 0°C / 32°F
Humidity Altimeter Pressure
81% 30.09" Hg 1019 hPa